createdAt,value
2019-03-01T00:00:57.851Z,16.40
2019-03-01T00:06:12.444Z,15.90
2019-03-01T00:11:51.458Z,18.03
2019-03-01T00:17:21.175Z,15.77
2019-03-01T00:22:38.696Z,16.10
2019-03-01T00:28:07.967Z,12.53
2019-03-01T00:33:28.101Z,17.30
2019-03-01T00:39:09.336Z,25.63
2019-03-01T00:44:39.536Z,26.10
2019-03-01T00:49:43.723Z,18.60
2019-03-01T00:54:47.834Z,18.20
2019-03-01T00:59:52.380Z,20.83
2019-03-01T01:04:56.575Z,22.73
2019-03-01T01:10:00.433Z,23.07
2019-03-01T01:15:04.773Z,29.23
2019-03-01T01:20:08.963Z,24.10
2019-03-01T01:25:12.962Z,21.60
2019-03-01T01:30:17.213Z,30.73
2019-03-01T01:35:21.593Z,22.30
2019-03-01T01:40:25.547Z,26.50
2019-03-01T01:45:29.639Z,26.27
2019-03-01T01:50:34.122Z,23.73
2019-03-01T01:55:38.035Z,26.90
2019-03-01T02:00:42.225Z,29.73
2019-03-01T02:05:46.580Z,30.77
2019-03-01T02:10:50.896Z,32.80
2019-03-01T02:15:55.162Z,28.10
2019-03-01T02:20:59.424Z,27.90
2019-03-01T02:26:03.336Z,29.27
2019-03-01T02:31:08.096Z,31.13
2019-03-01T02:36:12.195Z,29.30
2019-03-01T02:41:16.067Z,26.17
2019-03-01T02:46:20.240Z,31.60
2019-03-01T02:51:24.587Z,28.60
2019-03-01T02:56:28.976Z,29.53
2019-03-01T03:01:33.271Z,26.30
2019-03-01T03:06:45.295Z,22.63
2019-03-01T03:11:49.771Z,21.50
2019-03-01T03:16:54.145Z,25.83
2019-03-01T03:21:58.208Z,23.33
2019-03-01T03:27:02.570Z,21.77
2019-03-01T03:32:06.606Z,19.27
2019-03-01T03:37:10.912Z,24.50
2019-03-01T03:42:15.287Z,22.50
2019-03-01T03:47:19.831Z,21.13
2019-03-01T03:52:24.153Z,26.80
2019-03-01T03:57:28.792Z,20.70
2019-03-01T04:02:33.071Z,17.77
2019-03-01T04:07:37.639Z,17.40
2019-03-01T04:12:42.011Z,18.60
2019-03-01T04:17:47.548Z,15.27
2019-03-01T04:22:51.884Z,22.63
2019-03-01T04:27:56.656Z,19.33
2019-03-01T04:33:01.107Z,20.23
2019-03-01T04:38:05.243Z,20.33
2019-03-01T04:43:10.199Z,17.13
2019-03-01T04:48:14.531Z,18.00
2019-03-01T04:53:18.921Z,16.40
2019-03-01T04:58:23.524Z,19.10
2019-03-01T05:03:27.970Z,17.03
2019-03-01T05:08:32.495Z,18.67
2019-03-01T05:13:36.819Z,20.63
2019-03-01T05:18:41.150Z,18.60
2019-03-01T05:23:45.643Z,18.27
2019-03-01T05:28:49.991Z,19.70
2019-03-01T05:33:55.368Z,14.97
2019-03-01T05:38:59.884Z,17.07
2019-03-01T05:44:04.303Z,18.73
2019-03-01T05:49:08.910Z,19.43
2019-03-01T05:54:13.453Z,17.20
2019-03-01T05:59:20.691Z,20.33
2019-03-01T06:04:34.377Z,23.90
2019-03-01T06:10:25.135Z,15.70
2019-03-01T06:16:09.084Z,18.23
2019-03-01T06:22:03.592Z,23.73
2019-03-01T06:27:54.075Z,19.53
2019-03-01T06:33:47.316Z,23.90
2019-03-01T06:39:40.872Z,21.67
2019-03-01T06:45:25.116Z,22.67
2019-03-01T06:50:49.565Z,21.77
2019-03-01T06:55:57.503Z,18.70
2019-03-01T07:01:06.682Z,22.93
2019-03-01T07:06:11.023Z,26.87
2019-03-01T07:11:15.400Z,33.30
2019-03-01T07:16:19.587Z,23.73
2019-03-01T07:21:23.865Z,24.03
2019-03-01T07:26:27.907Z,24.27
2019-03-01T07:31:32.101Z,25.40
2019-03-01T07:36:36.375Z,26.00
2019-03-01T07:41:40.658Z,24.70
2019-03-01T07:46:52.598Z,23.70
2019-03-01T07:51:50.915Z,26.53
2019-03-01T07:56:54.964Z,30.10
2019-03-01T08:02:00.817Z,30.20
2019-03-01T08:07:05.207Z,30.00
2019-03-01T08:12:09.283Z,34.40
2019-03-01T08:17:13.743Z,35.00
2019-03-01T08:22:20.763Z,38.03
2019-03-01T08:27:25.289Z,37.90
2019-03-01T08:32:30.737Z,45.97
2019-03-01T08:37:35.816Z,46.17
2019-03-01T08:42:40.359Z,45.87
2019-03-01T08:47:44.960Z,46.97
2019-03-01T08:52:49.289Z,42.90
2019-03-01T08:57:53.998Z,46.83
2019-03-01T09:03:00.422Z,45.20
2019-03-01T09:08:04.972Z,49.73
2019-03-01T09:13:09.107Z,48.27
2019-03-01T09:18:14.628Z,47.60
2019-03-01T09:23:24.244Z,47.33
2019-03-01T09:28:25.827Z,46.80
2019-03-01T09:33:29.939Z,46.80
2019-03-01T09:38:34.168Z,57.13
2019-03-01T09:43:38.507Z,57.20
2019-03-01T09:48:45.630Z,51.80
2019-03-01T09:53:48.619Z,56.83
2019-03-01T09:58:52.896Z,54.27
2019-03-01T10:03:56.946Z,54.13
2019-03-01T10:09:01.759Z,57.70
2019-03-01T10:14:05.860Z,55.43
2019-03-01T10:19:10.223Z,58.07
2019-03-01T10:24:14.790Z,63.40
2019-03-01T10:29:19.294Z,55.67
2019-03-01T10:34:23.579Z,64.37
2019-03-01T10:39:27.811Z,60.27
2019-03-01T10:44:31.939Z,61.57
2019-03-01T10:49:36.191Z,70.43
2019-03-01T10:54:41.055Z,66.50
2019-03-01T10:59:45.323Z,61.57
2019-03-01T11:04:49.718Z,66.57
2019-03-01T11:09:54.579Z,57.50
2019-03-01T11:14:58.871Z,59.83
2019-03-01T11:20:03.114Z,56.07
2019-03-01T11:25:08.355Z,58.73
2019-03-01T11:30:17.942Z,59.40
2019-03-01T11:35:22.225Z,62.83
2019-03-01T11:40:31.083Z,57.93
2019-03-01T11:45:35.639Z,64.37
2019-03-01T11:50:39.760Z,62.73
2019-03-01T11:55:43.979Z,68.67
2019-03-01T12:00:52.248Z,67.17
2019-03-01T12:05:54.625Z,72.77
2019-03-01T12:10:58.994Z,69.30
2019-03-01T12:16:03.472Z,77.13
2019-03-01T12:21:07.980Z,79.87
2019-03-01T12:26:12.339Z,69.17
2019-03-01T12:31:16.450Z,67.93
2019-03-01T12:36:20.824Z,75.40
2019-03-01T12:41:24.887Z,74.53
2019-03-01T12:46:28.879Z,65.57
2019-03-01T12:51:33.241Z,100.57
2019-03-01T12:56:37.522Z,77.77
2019-03-01T13:01:43.184Z,112.63
2019-03-01T13:06:47.535Z,83.50
2019-03-01T13:11:52.130Z,65.90
2019-03-01T13:16:58.589Z,69.27
2019-03-01T13:22:02.137Z,53.93
2019-03-01T13:27:06.436Z,65.37
2019-03-01T13:32:10.661Z,58.50
2019-03-01T13:37:19.371Z,62.93
2019-03-01T13:42:21.240Z,51.80
2019-03-01T13:47:25.335Z,57.43
2019-03-01T13:52:31.047Z,52.10
2019-03-01T13:57:35.375Z,61.80
2019-03-01T14:02:39.744Z,56.73
2019-03-01T14:07:44.288Z,55.97
2019-03-01T14:12:48.819Z,50.43
2019-03-01T14:17:53.498Z,42.07
2019-03-01T14:22:58.036Z,53.23
2019-03-01T14:28:05.096Z,44.23
2019-03-01T14:33:08.432Z,53.90
2019-03-01T14:38:12.723Z,43.30
2019-03-01T14:43:20.275Z,44.77
2019-03-01T14:48:23.128Z,51.17
2019-03-01T14:53:31.041Z,50.80
2019-03-01T14:58:37.607Z,48.60
2019-03-01T15:03:42.142Z,51.70
2019-03-01T15:08:46.688Z,46.90
2019-03-01T15:13:52.743Z,52.73
2019-03-01T15:18:56.786Z,44.80
2019-03-01T15:24:01.500Z,46.00
2019-03-01T15:29:06.952Z,42.80
2019-03-01T15:34:11.294Z,35.17
2019-03-01T15:39:16.746Z,48.50
2019-03-01T15:44:21.674Z,47.00
2019-03-01T15:49:25.974Z,40.70
2019-03-01T15:54:32.503Z,44.13
2019-03-01T15:59:35.971Z,37.77
2019-03-01T16:04:41.944Z,44.00
2019-03-01T16:09:46.955Z,33.23
2019-03-01T16:14:51.537Z,40.17
2019-03-01T16:19:56.117Z,36.60
2019-03-01T16:25:00.287Z,31.57
2019-03-01T16:30:05.106Z,29.83
2019-03-01T16:35:09.903Z,37.90
2019-03-01T16:40:15.669Z,28.90
2019-03-01T16:45:21.176Z,33.40
2019-03-01T16:50:26.110Z,28.83
2019-03-01T16:55:30.195Z,33.53
2019-03-01T17:00:34.234Z,33.30
2019-03-01T17:05:39.638Z,36.60
2019-03-01T17:10:44.446Z,31.17
2019-03-01T17:15:49.301Z,32.20
2019-03-01T17:20:53.464Z,37.87
2019-03-01T17:25:58.447Z,30.93
2019-03-01T17:31:02.899Z,23.27
2019-03-01T17:36:07.009Z,26.90
2019-03-01T17:41:11.509Z,25.27
2019-03-01T17:46:16.135Z,22.97
2019-03-01T17:51:21.007Z,25.43
2019-03-01T17:56:25.904Z,23.67
2019-03-01T18:01:30.715Z,19.30
2019-03-01T18:06:34.707Z,17.10
2019-03-01T18:11:40.686Z,18.90
2019-03-01T18:16:45.279Z,16.43
2019-03-01T18:21:51.014Z,15.30
2019-03-01T18:26:55.714Z,18.63
2019-03-01T18:32:00.232Z,14.63
2019-03-01T18:37:15.618Z,23.73
2019-03-01T18:42:11.736Z,29.65
2019-03-01T18:47:16.353Z,21.07
2019-03-01T18:52:20.652Z,22.57
2019-03-01T18:57:25.535Z,23.50
2019-03-01T19:02:29.685Z,35.63
2019-03-01T19:07:34.267Z,19.43
2019-03-01T19:12:38.656Z,17.40
2019-03-01T19:17:44.539Z,20.30
2019-03-01T19:22:49.407Z,22.63
2019-03-01T19:27:53.867Z,17.13
2019-03-01T19:32:59.034Z,17.20
2019-03-01T19:38:04.291Z,18.63
2019-03-01T19:43:10.197Z,19.10
2019-03-01T19:48:14.592Z,13.57
2019-03-01T19:53:21.655Z,12.97
2019-03-01T19:58:25.053Z,20.80
2019-03-01T20:03:29.291Z,16.87
2019-03-01T20:08:33.575Z,12.83
2019-03-01T20:13:38.371Z,13.67
2019-03-01T20:18:45.010Z,14.30
2019-03-01T20:23:49.546Z,17.73
2019-03-01T20:28:53.790Z,23.70
2019-03-01T20:33:58.553Z,14.93
2019-03-01T20:39:04.800Z,15.57
2019-03-01T20:44:09.303Z,11.67
2019-03-01T20:49:13.615Z,12.83
2019-03-01T20:54:18.168Z,10.10
2019-03-01T20:59:22.496Z,9.10
2019-03-01T21:04:27.567Z,11.27
2019-03-01T21:09:32.099Z,8.57
2019-03-01T21:14:37.227Z,7.10
2019-03-01T21:19:43.817Z,10.37
2019-03-01T21:24:48.952Z,13.03
2019-03-01T21:29:53.380Z,8.90
2019-03-01T21:34:58.080Z,6.53
2019-03-01T21:40:03.267Z,7.70
2019-03-01T21:45:09.163Z,4.83
2019-03-01T21:50:13.574Z,4.97
2019-03-01T21:55:17.975Z,6.30
2019-03-01T22:00:25.492Z,9.83
2019-03-01T22:05:29.548Z,8.00
2019-03-01T22:10:35.684Z,4.40
2019-03-01T22:15:40.518Z,5.53
2019-03-01T22:20:45.736Z,5.83
2019-03-01T22:25:50.078Z,5.40
2019-03-01T22:30:56.515Z,4.27
2019-03-01T22:36:00.331Z,4.97
2019-03-01T22:41:04.975Z,4.43
2019-03-01T22:46:09.103Z,6.30
2019-03-01T22:51:14.463Z,6.77
2019-03-01T22:56:19.431Z,6.23
2019-03-01T23:01:41.651Z,6.77
2019-03-01T23:06:47.591Z,8.40
2019-03-01T23:11:52.820Z,3.20
2019-03-01T23:16:57.344Z,4.00
2019-03-01T23:22:01.864Z,5.90
2019-03-01T23:27:05.823Z,3.87
2019-03-01T23:32:11.806Z,5.90
2019-03-01T23:37:16.045Z,6.27
2019-03-01T23:42:20.800Z,5.93
2019-03-01T23:47:26.583Z,8.67
2019-03-01T23:52:30.783Z,11.80
2019-03-01T23:57:38.030Z,9.87
